createdAt,value
2023-03-02T00:01:53.162Z,11.39
2023-03-02T00:04:29.403Z,11.47
2023-03-02T00:07:01.170Z,11.75
2023-03-02T00:09:30.882Z,11.62
2023-03-02T00:11:58.806Z,11.56
2023-03-02T00:14:27.131Z,11.70
2023-03-02T00:16:55.032Z,11.69
2023-03-02T00:19:23.330Z,11.51
2023-03-02T00:21:51.414Z,11.72
2023-03-02T00:24:20.300Z,11.80
2023-03-02T00:26:48.390Z,11.86
2023-03-02T00:29:16.830Z,11.83
2023-03-02T00:31:45.034Z,11.69
2023-03-02T00:34:13.546Z,11.58
2023-03-02T00:36:41.740Z,11.65
2023-03-02T00:39:10.237Z,11.57
2023-03-02T00:41:38.606Z,11.75
2023-03-02T00:44:06.902Z,11.69
2023-03-02T00:46:35.111Z,11.89
2023-03-02T00:49:03.929Z,12.06
2023-03-02T00:51:31.844Z,11.94
2023-03-02T00:54:03.085Z,11.89
2023-03-02T00:56:31.859Z,11.83
2023-03-02T00:59:28.430Z,11.94
2023-03-02T01:02:06.781Z,12.01
2023-03-02T01:04:41.889Z,11.91
2023-03-02T01:07:11.716Z,11.96
2023-03-02T01:09:42.072Z,12.20
2023-03-02T01:12:11.590Z,12.11
2023-03-02T01:14:45.006Z,11.94
2023-03-02T01:17:13.648Z,12.04
2023-03-02T01:19:42.948Z,11.83
2023-03-02T01:22:11.096Z,11.94
2023-03-02T01:24:39.419Z,12.06
2023-03-02T01:27:07.511Z,12.17
2023-03-02T01:29:36.405Z,12.07
2023-03-02T01:32:04.705Z,12.18
2023-03-02T01:34:33.348Z,12.13
2023-03-02T01:37:01.273Z,12.11
2023-03-02T01:39:29.834Z,12.16
2023-03-02T01:41:57.757Z,12.16
2023-03-02T01:44:57.338Z,12.21
2023-03-02T01:47:32.596Z,12.10
2023-03-02T01:50:27.089Z,12.03
2023-03-02T01:52:58.673Z,12.32
2023-03-02T01:55:31.715Z,12.27
2023-03-02T01:58:01.300Z,12.18
2023-03-02T02:00:34.951Z,11.75
2023-03-02T02:03:11.807Z,11.87
2023-03-02T02:05:44.718Z,11.79
2023-03-02T02:08:12.656Z,11.52
2023-03-02T02:10:41.111Z,11.63
2023-03-02T02:13:11.998Z,11.57
2023-03-02T02:15:41.741Z,11.21
2023-03-02T02:18:10.020Z,11.32
2023-03-02T02:20:42.750Z,11.50
2023-03-02T02:23:42.929Z,11.39
2023-03-02T02:26:18.634Z,11.29
2023-03-02T02:29:01.573Z,11.21
2023-03-02T02:31:49.228Z,10.64
2023-03-02T02:34:31.189Z,10.58
2023-03-02T02:37:08.594Z,10.40
2023-03-02T02:39:41.863Z,10.43
2023-03-02T02:42:17.729Z,10.17
2023-03-02T02:44:46.057Z,10.00
2023-03-02T02:47:21.312Z,9.92
2023-03-02T02:49:52.979Z,9.76
2023-03-02T02:52:24.356Z,9.83
2023-03-02T02:54:55.135Z,10.09
2023-03-02T02:57:29.410Z,10.05
2023-03-02T03:00:00.809Z,9.92
2023-03-02T03:02:33.405Z,9.77
2023-03-02T03:05:04.268Z,9.74
2023-03-02T03:07:35.907Z,9.95
2023-03-02T03:10:14.586Z,10.26
2023-03-02T03:12:43.177Z,10.48
2023-03-02T03:15:12.172Z,10.66
2023-03-02T03:17:41.177Z,10.28
2023-03-02T03:20:09.727Z,10.69
2023-03-02T03:22:43.501Z,10.77
2023-03-02T03:25:15.659Z,10.51
2023-03-02T03:27:47.491Z,10.47
2023-03-02T03:30:16.281Z,10.66
2023-03-02T03:32:45.203Z,10.72
2023-03-02T03:35:15.096Z,10.92
2023-03-02T03:37:43.683Z,10.90
2023-03-02T03:40:12.742Z,10.86
2023-03-02T03:42:44.302Z,10.78
2023-03-02T03:45:13.844Z,10.76
2023-03-02T03:47:44.971Z,10.68
2023-03-02T03:50:13.195Z,10.89
2023-03-02T03:52:42.355Z,10.92
2023-03-02T03:55:16.113Z,10.91
2023-03-02T03:57:46.813Z,10.66
2023-03-02T04:00:19.723Z,10.78
2023-03-02T04:02:53.611Z,10.83
2023-03-02T04:05:22.035Z,10.78
2023-03-02T04:07:53.826Z,10.61
2023-03-02T04:10:22.875Z,10.66
2023-03-02T04:12:54.583Z,10.52
2023-03-02T04:15:23.381Z,10.48
2023-03-02T04:17:53.464Z,10.52
2023-03-02T04:20:24.952Z,10.55
2023-03-02T04:22:57.560Z,10.47
2023-03-02T04:25:28.561Z,10.52
2023-03-02T04:28:05.690Z,10.26
2023-03-02T04:30:37.678Z,10.38
2023-03-02T04:33:06.009Z,10.43
2023-03-02T04:35:35.432Z,10.37
2023-03-02T04:38:04.796Z,10.49
2023-03-02T04:40:32.854Z,10.21
2023-03-02T04:43:01.333Z,10.36
2023-03-02T04:45:29.417Z,10.43
2023-03-02T04:47:57.747Z,10.36
2023-03-02T04:50:26.016Z,10.18
2023-03-02T04:52:54.260Z,10.30
2023-03-02T04:55:25.298Z,10.43
2023-03-02T04:57:53.816Z,10.18
2023-03-02T05:00:22.076Z,10.24
2023-03-02T05:02:50.450Z,10.01
2023-03-02T05:05:22.719Z,10.08
2023-03-02T05:07:51.461Z,10.18
2023-03-02T05:10:20.929Z,10.13
2023-03-02T05:12:55.211Z,10.12
2023-03-02T05:15:25.247Z,10.12
2023-03-02T05:17:53.703Z,10.21
2023-03-02T05:20:27.804Z,10.07
2023-03-02T05:22:59.637Z,10.15
2023-03-02T05:25:29.500Z,9.98
2023-03-02T05:27:58.118Z,10.11
2023-03-02T05:30:26.414Z,10.02
2023-03-02T05:32:55.333Z,10.08
2023-03-02T05:35:23.504Z,10.18
2023-03-02T05:37:52.927Z,10.10
2023-03-02T05:40:21.306Z,10.03
2023-03-02T05:42:51.127Z,10.05
2023-03-02T05:45:45.384Z,9.98
2023-03-02T05:48:14.447Z,9.99
2023-03-02T05:50:42.590Z,10.16
2023-03-02T05:53:10.863Z,10.30
2023-03-02T05:55:38.866Z,10.29
2023-03-02T05:58:09.374Z,10.25
2023-03-02T06:00:37.422Z,10.30
2023-03-02T06:03:05.749Z,10.33
2023-03-02T06:05:34.677Z,10.38
2023-03-02T06:08:03.890Z,10.43
2023-03-02T06:10:32.771Z,10.37
2023-03-02T06:13:01.230Z,10.43
2023-03-02T06:15:29.888Z,10.52
2023-03-02T06:17:58.369Z,10.27
2023-03-02T06:20:26.570Z,10.36
2023-03-02T06:22:55.448Z,10.28
2023-03-02T06:25:25.075Z,10.26
2023-03-02T06:27:53.990Z,10.21
2023-03-02T06:30:25.999Z,10.35
2023-03-02T06:32:54.462Z,10.34
2023-03-02T06:35:24.283Z,10.34
2023-03-02T06:37:52.764Z,10.39
2023-03-02T06:40:22.031Z,10.58
2023-03-02T06:42:50.586Z,10.61
2023-03-02T06:45:18.636Z,10.70
2023-03-02T06:47:46.904Z,10.71
2023-03-02T06:50:14.985Z,10.66
2023-03-02T06:52:43.344Z,10.46
2023-03-02T06:55:11.400Z,10.48
2023-03-02T06:57:40.074Z,10.42
2023-03-02T07:00:16.280Z,10.48
2023-03-02T07:02:45.382Z,10.48
2023-03-02T07:05:13.659Z,10.58
2023-03-02T07:07:42.443Z,10.62
2023-03-02T07:10:12.727Z,10.71
2023-03-02T07:12:42.077Z,10.74
2023-03-02T07:15:12.500Z,10.68
2023-03-02T07:17:43.149Z,10.84
2023-03-02T07:20:13.963Z,10.93
2023-03-02T07:22:43.102Z,10.82
2023-03-02T07:25:11.873Z,10.94
2023-03-02T07:27:40.553Z,11.00
2023-03-02T07:30:09.546Z,11.17
2023-03-02T07:32:38.202Z,10.89
2023-03-02T07:35:06.965Z,10.95
2023-03-02T07:37:35.332Z,11.35
2023-03-02T07:40:04.067Z,11.49
2023-03-02T07:42:34.305Z,11.49
2023-03-02T07:45:05.151Z,11.53
2023-03-02T07:47:33.510Z,11.40
2023-03-02T07:50:01.506Z,11.37
2023-03-02T07:52:31.158Z,11.47
2023-03-02T07:54:59.147Z,11.51
2023-03-02T07:57:27.525Z,11.77
2023-03-02T07:59:55.553Z,11.65
2023-03-02T08:02:25.716Z,11.83
2023-03-02T08:04:53.778Z,11.89
2023-03-02T08:07:22.169Z,12.04
2023-03-02T08:09:50.585Z,12.07
2023-03-02T08:12:18.908Z,12.07
2023-03-02T08:14:48.433Z,12.22
2023-03-02T08:17:16.670Z,12.12
2023-03-02T08:19:45.109Z,12.24
2023-03-02T08:22:14.366Z,12.87
2023-03-02T08:24:43.151Z,12.97
2023-03-02T08:27:15.846Z,13.04
2023-03-02T08:29:44.056Z,13.15
2023-03-02T08:32:12.691Z,13.32
2023-03-02T08:34:40.769Z,13.43
2023-03-02T08:37:09.112Z,13.46
2023-03-02T08:39:37.113Z,13.31
2023-03-02T08:42:05.381Z,13.29
2023-03-02T08:44:33.383Z,13.49
2023-03-02T08:47:01.659Z,13.82
2023-03-02T08:49:29.605Z,13.68
2023-03-02T08:51:59.286Z,13.95
2023-03-02T08:54:27.421Z,13.84
2023-03-02T08:56:56.090Z,13.51
2023-03-02T08:59:24.239Z,13.18
2023-03-02T09:01:52.585Z,13.37
2023-03-02T09:04:20.676Z,13.47
2023-03-02T09:06:49.041Z,13.09
2023-03-02T09:09:16.978Z,13.03
2023-03-02T09:11:45.478Z,13.58
2023-03-02T09:14:13.492Z,13.63
2023-03-02T09:16:42.073Z,13.58
2023-03-02T09:19:12.126Z,13.76
2023-03-02T09:21:40.528Z,13.95
2023-03-02T09:24:09.014Z,14.08
2023-03-02T09:26:39.602Z,14.07
2023-03-02T09:29:08.036Z,14.04
2023-03-02T09:31:38.001Z,13.77
2023-03-02T09:34:06.548Z,13.98
2023-03-02T09:36:35.246Z,13.94
2023-03-02T09:39:08.729Z,14.11
2023-03-02T09:42:06.545Z,14.25
2023-03-02T09:45:19.451Z,14.32
2023-03-02T09:47:53.825Z,14.39
2023-03-02T09:50:31.156Z,14.48
2023-03-02T09:53:05.729Z,14.64
2023-03-02T09:55:36.411Z,14.36
2023-03-02T09:58:16.333Z,14.58
2023-03-02T10:00:45.980Z,14.66
2023-03-02T10:03:32.399Z,14.39
2023-03-02T10:06:00.558Z,14.40
2023-03-02T10:08:34.382Z,14.25
2023-03-02T10:11:18.206Z,14.10
2023-03-02T10:14:03.777Z,14.15
2023-03-02T10:17:04.408Z,14.34
2023-03-02T10:19:42.517Z,14.78
2023-03-02T10:22:17.185Z,14.79
2023-03-02T10:25:03.476Z,14.59
2023-03-02T10:27:39.499Z,14.72
2023-03-02T10:30:25.915Z,14.64
2023-03-02T10:32:59.418Z,14.53
2023-03-02T10:35:29.858Z,14.70
2023-03-02T10:38:07.225Z,14.58
2023-03-02T10:40:49.569Z,14.44
2023-03-02T10:43:42.945Z,14.50
2023-03-02T10:46:13.367Z,14.46
2023-03-02T10:49:01.496Z,14.44
2023-03-02T10:51:33.027Z,14.38
2023-03-02T10:54:11.041Z,14.40
2023-03-02T10:56:43.440Z,14.35
2023-03-02T10:59:29.443Z,14.34
2023-03-02T11:02:13.006Z,14.24
2023-03-02T11:04:41.249Z,14.15
2023-03-02T11:07:19.017Z,14.32
2023-03-02T11:10:17.816Z,14.51
2023-03-02T11:12:49.287Z,14.54
2023-03-02T11:15:23.149Z,14.44
2023-03-02T11:18:00.296Z,14.38
2023-03-02T11:20:44.345Z,14.45
2023-03-02T11:23:41.307Z,14.01
2023-03-02T11:26:39.277Z,14.14
2023-03-02T11:29:10.537Z,14.12
2023-03-02T11:31:44.700Z,14.09
2023-03-02T11:34:23.335Z,14.26
2023-03-02T11:37:00.467Z,14.40
2023-03-02T11:39:56.224Z,14.43
2023-03-02T11:42:34.995Z,14.53
2023-03-02T11:45:17.996Z,14.57
2023-03-02T11:48:18.190Z,14.20
2023-03-02T11:50:57.775Z,14.30
2023-03-02T11:53:58.465Z,14.13
2023-03-02T11:56:37.160Z,14.27
2023-03-02T11:59:17.726Z,14.35
2023-03-02T12:01:50.992Z,14.41
2023-03-02T12:04:35.177Z,14.37
2023-03-02T12:07:18.359Z,14.37
2023-03-02T12:10:00.829Z,14.37
2023-03-02T12:12:41.934Z,14.51
2023-03-02T12:15:50.975Z,14.61
2023-03-02T12:18:22.579Z,14.61
2023-03-02T12:21:14.858Z,14.49
2023-03-02T12:23:49.092Z,14.68
2023-03-02T12:26:19.661Z,14.67
2023-03-02T12:29:05.030Z,14.84
2023-03-02T12:32:10.159Z,14.85
2023-03-02T12:34:42.772Z,14.88
2023-03-02T12:37:17.293Z,15.01
2023-03-02T12:39:51.552Z,15.16
2023-03-02T12:42:28.522Z,15.17
2023-03-02T12:45:19.207Z,14.61
2023-03-02T12:47:51.857Z,14.83
2023-03-02T12:50:30.490Z,14.47
2023-03-02T12:53:04.760Z,14.88
2023-03-02T12:55:34.600Z,15.01
2023-03-02T12:58:02.809Z,14.76
2023-03-02T13:00:34.481Z,14.49
2023-03-02T13:03:02.543Z,15.08
2023-03-02T13:05:34.947Z,15.13
2023-03-02T13:08:18.454Z,15.00
2023-03-02T13:10:52.539Z,14.93
2023-03-02T13:13:27.843Z,15.29
2023-03-02T13:15:58.832Z,15.33
2023-03-02T13:18:32.294Z,15.70
2023-03-02T13:21:02.757Z,15.50
2023-03-02T13:23:33.319Z,15.80
2023-03-02T13:26:05.192Z,15.07
2023-03-02T13:28:35.980Z,15.23
2023-03-02T13:31:05.820Z,15.24
2023-03-02T13:33:36.241Z,15.01
2023-03-02T13:36:04.792Z,15.14
2023-03-02T13:38:38.922Z,14.82
2023-03-02T13:41:08.451Z,14.88
2023-03-02T13:43:39.444Z,14.77
2023-03-02T13:46:27.854Z,15.22
2023-03-02T13:49:10.309Z,15.14
2023-03-02T13:51:45.550Z,15.16
2023-03-02T13:54:22.903Z,15.12
2023-03-02T13:56:53.733Z,14.86
2023-03-02T13:59:22.392Z,14.84
2023-03-02T14:01:51.482Z,15.21
2023-03-02T14:04:23.674Z,14.99
2023-03-02T14:06:54.111Z,14.93
2023-03-02T14:09:22.220Z,15.00
2023-03-02T14:11:55.975Z,15.31
2023-03-02T14:14:27.713Z,15.33
2023-03-02T14:16:56.516Z,15.23
2023-03-02T14:19:24.373Z,15.34
2023-03-02T14:21:52.555Z,15.37
2023-03-02T14:24:20.376Z,15.38
2023-03-02T14:26:49.870Z,15.45
2023-03-02T14:29:30.415Z,15.31
2023-03-02T14:32:06.927Z,15.28
2023-03-02T14:34:37.245Z,15.15
2023-03-02T14:37:14.179Z,15.10
2023-03-02T14:39:46.128Z,15.38
2023-03-02T14:42:16.697Z,15.49
2023-03-02T14:44:46.105Z,15.70
2023-03-02T14:47:16.995Z,15.85
2023-03-02T14:49:45.395Z,16.01
2023-03-02T14:52:32.343Z,15.85
2023-03-02T14:55:06.398Z,16.08
2023-03-02T14:57:38.681Z,16.10
2023-03-02T15:00:13.171Z,16.10
2023-03-02T15:02:42.060Z,16.19
2023-03-02T15:05:10.229Z,16.12
2023-03-02T15:07:39.173Z,15.93
2023-03-02T15:10:11.569Z,15.99
2023-03-02T15:12:39.812Z,16.21
2023-03-02T15:15:08.228Z,16.22
2023-03-02T15:17:36.441Z,16.09
2023-03-02T15:20:06.339Z,16.11
2023-03-02T15:22:34.844Z,16.19
2023-03-02T15:25:02.681Z,15.86
2023-03-02T15:27:30.883Z,15.61
2023-03-02T15:29:58.819Z,15.89
2023-03-02T15:32:27.290Z,15.75
2023-03-02T15:34:55.372Z,15.86
2023-03-02T15:37:23.616Z,15.77
2023-03-02T15:39:55.902Z,15.50
2023-03-02T15:42:24.406Z,15.74
2023-03-02T15:44:52.344Z,15.47
2023-03-02T15:47:20.527Z,15.51
2023-03-02T15:49:48.364Z,15.50
2023-03-02T15:52:16.697Z,15.58
2023-03-02T15:54:44.610Z,15.64
2023-03-02T15:57:12.961Z,15.51
2023-03-02T15:59:40.907Z,15.18
2023-03-02T16:02:09.791Z,15.40
2023-03-02T16:04:37.727Z,15.38
2023-03-02T16:07:06.098Z,15.39
2023-03-02T16:09:34.092Z,15.36
2023-03-02T16:12:02.349Z,15.26
2023-03-02T16:14:30.219Z,15.33
2023-03-02T16:16:58.536Z,15.38
2023-03-02T16:19:26.421Z,14.95
2023-03-02T16:21:54.770Z,15.02
2023-03-02T16:24:22.797Z,14.81
2023-03-02T16:26:53.917Z,14.79
2023-03-02T16:29:22.911Z,14.78
2023-03-02T16:31:51.314Z,14.62
2023-03-02T16:34:19.420Z,14.54
2023-03-02T16:36:47.941Z,14.77
2023-03-02T16:39:15.875Z,14.65
2023-03-02T16:41:46.717Z,14.69
2023-03-02T16:44:14.881Z,14.48
2023-03-02T16:46:43.845Z,14.53
2023-03-02T16:49:13.595Z,14.48
2023-03-02T16:51:43.369Z,14.31
2023-03-02T16:54:15.823Z,14.44
2023-03-02T16:56:47.615Z,14.49
2023-03-02T16:59:16.080Z,14.28
2023-03-02T17:01:44.826Z,14.17
2023-03-02T17:04:13.078Z,14.14
2023-03-02T17:06:59.762Z,14.15
2023-03-02T17:09:28.733Z,14.11
2023-03-02T17:11:57.948Z,14.09
2023-03-02T17:14:26.552Z,14.14
2023-03-02T17:16:57.094Z,13.96
2023-03-02T17:19:27.209Z,14.00
2023-03-02T17:22:03.013Z,13.94
2023-03-02T17:24:31.335Z,13.95
2023-03-02T17:26:59.984Z,13.94
2023-03-02T17:29:28.190Z,13.94
2023-03-02T17:31:56.672Z,13.89
2023-03-02T17:34:28.859Z,13.77
2023-03-02T17:37:00.166Z,13.88
2023-03-02T17:39:28.797Z,13.78
2023-03-02T17:41:57.268Z,13.83
2023-03-02T17:44:25.452Z,13.91
2023-03-02T17:46:54.213Z,13.90
2023-03-02T17:49:22.461Z,13.73
2023-03-02T17:51:50.850Z,13.54
2023-03-02T17:54:18.997Z,13.71
2023-03-02T17:56:47.751Z,13.80
2023-03-02T17:59:15.951Z,13.58
2023-03-02T18:01:44.411Z,13.45
2023-03-02T18:04:12.808Z,13.53
2023-03-02T18:06:41.561Z,13.41
2023-03-02T18:09:10.360Z,13.45
2023-03-02T18:11:41.630Z,13.50
2023-03-02T18:14:15.492Z,13.54
2023-03-02T18:16:44.512Z,13.57
2023-03-02T18:19:12.790Z,13.53
2023-03-02T18:21:42.767Z,13.46
2023-03-02T18:24:10.871Z,13.44
2023-03-02T18:26:39.737Z,13.47
2023-03-02T18:29:08.178Z,13.39
2023-03-02T18:31:36.901Z,13.49
2023-03-02T18:34:05.071Z,13.27
2023-03-02T18:36:33.765Z,13.43
2023-03-02T18:39:03.324Z,13.05
2023-03-02T18:41:32.794Z,12.91
2023-03-02T18:44:01.559Z,12.84
2023-03-02T18:46:32.231Z,12.61
2023-03-02T18:49:01.192Z,12.63
2023-03-02T18:51:29.558Z,12.48
2023-03-02T18:53:57.732Z,12.45
2023-03-02T18:56:26.154Z,12.62
2023-03-02T18:58:54.783Z,12.66
2023-03-02T19:01:23.433Z,12.67
2023-03-02T19:03:53.484Z,12.62
2023-03-02T19:06:23.433Z,12.81
2023-03-02T19:08:51.455Z,12.86
2023-03-02T19:11:19.967Z,12.73
2023-03-02T19:13:48.054Z,12.97
2023-03-02T19:16:18.378Z,12.97
2023-03-02T19:18:47.226Z,12.81
2023-03-02T19:21:15.749Z,12.89
2023-03-02T19:23:45.662Z,12.89
2023-03-02T19:26:15.582Z,13.01
2023-03-02T19:28:43.697Z,12.98
2023-03-02T19:31:13.897Z,12.85
2023-03-02T19:33:42.739Z,12.76
2023-03-02T19:36:12.077Z,12.71
2023-03-02T19:38:44.657Z,12.61
2023-03-02T19:41:16.584Z,12.61
2023-03-02T19:43:46.151Z,12.47
2023-03-02T19:46:16.605Z,12.52
2023-03-02T19:48:45.018Z,12.48
2023-03-02T19:51:14.929Z,12.47
2023-03-02T19:53:44.424Z,12.55
2023-03-02T19:56:15.828Z,12.33
2023-03-02T19:58:48.113Z,12.32
2023-03-02T20:01:25.245Z,12.19
2023-03-02T20:03:55.208Z,12.04
2023-03-02T20:06:30.762Z,12.17
2023-03-02T20:09:01.597Z,12.09
2023-03-02T20:11:31.555Z,12.10
2023-03-02T20:14:02.829Z,12.11
2023-03-02T20:16:33.402Z,11.87
2023-03-02T20:19:03.537Z,11.90
2023-03-02T20:21:33.360Z,12.21
2023-03-02T20:24:01.647Z,11.84
2023-03-02T20:26:30.139Z,11.63
2023-03-02T20:28:59.920Z,11.88
2023-03-02T20:31:31.723Z,11.69
2023-03-02T20:34:05.884Z,11.71
2023-03-02T20:36:37.599Z,11.47
2023-03-02T20:39:28.195Z,11.63
2023-03-02T20:41:58.283Z,11.67
2023-03-02T20:44:28.505Z,11.42
2023-03-02T20:47:01.827Z,11.56
2023-03-02T20:49:32.251Z,11.50
2023-03-02T20:52:03.263Z,11.53
2023-03-02T20:54:36.293Z,11.48
2023-03-02T20:57:07.001Z,11.33
2023-03-02T20:59:39.744Z,11.24
2023-03-02T21:02:08.876Z,11.21
2023-03-02T21:04:38.027Z,11.19
2023-03-02T21:07:06.836Z,11.20
2023-03-02T21:09:36.369Z,11.32
2023-03-02T21:12:08.573Z,11.11
2023-03-02T21:14:38.144Z,10.95
2023-03-02T21:17:07.635Z,10.91
2023-03-02T21:19:35.885Z,11.03
2023-03-02T21:22:04.553Z,10.85
2023-03-02T21:24:32.653Z,10.89
2023-03-02T21:27:01.586Z,10.85
2023-03-02T21:29:29.862Z,11.03
2023-03-02T21:31:58.431Z,11.00
2023-03-02T21:34:26.566Z,11.01
2023-03-02T21:36:54.941Z,11.02
2023-03-02T21:39:23.832Z,10.89
2023-03-02T21:41:53.596Z,10.88
2023-03-02T21:44:21.986Z,10.88
2023-03-02T21:46:51.150Z,10.88
2023-03-02T21:49:22.318Z,10.65
2023-03-02T21:51:50.827Z,10.80
2023-03-02T21:54:18.886Z,10.57
2023-03-02T21:56:47.205Z,10.46
2023-03-02T21:59:15.312Z,10.64
2023-03-02T22:01:44.190Z,10.36
2023-03-02T22:04:12.337Z,10.49
2023-03-02T22:06:40.643Z,10.64
2023-03-02T22:09:08.731Z,10.63
2023-03-02T22:11:38.420Z,10.66
2023-03-02T22:14:15.262Z,10.56
2023-03-02T22:16:47.544Z,10.51
2023-03-02T22:19:25.944Z,10.53
2023-03-02T22:22:00.390Z,10.33
2023-03-02T22:24:30.599Z,10.50
2023-03-02T22:27:04.776Z,10.31
2023-03-02T22:29:37.629Z,10.31
2023-03-02T22:32:27.384Z,10.27
2023-03-02T22:34:58.962Z,9.97
2023-03-02T22:37:29.600Z,10.34
2023-03-02T22:43:14.915Z,10.16
2023-03-02T22:45:43.110Z,9.99
2023-03-02T22:48:20.573Z,9.91
2023-03-02T22:50:50.201Z,10.21
2023-03-02T22:53:42.731Z,10.04
2023-03-02T22:56:30.723Z,10.12
2023-03-02T22:59:26.198Z,10.04
2023-03-02T23:02:14.257Z,10.19
2023-03-02T23:04:42.891Z,10.08
2023-03-02T23:07:22.362Z,10.30
2023-03-02T23:09:50.542Z,10.46
2023-03-02T23:12:27.591Z,10.04
2023-03-02T23:14:58.250Z,10.20
2023-03-02T23:17:37.474Z,10.00
2023-03-02T23:20:09.492Z,9.91
2023-03-02T23:22:39.245Z,9.99
2023-03-02T23:25:08.973Z,9.82
2023-03-02T23:27:37.027Z,9.81
2023-03-02T23:30:06.380Z,9.96
2023-03-02T23:32:34.364Z,9.93
2023-03-02T23:35:02.798Z,9.70
2023-03-02T23:37:30.750Z,9.94
2023-03-02T23:39:58.971Z,9.79
2023-03-02T23:42:26.851Z,9.69
2023-03-02T23:44:55.836Z,9.69
2023-03-02T23:47:23.744Z,9.93
2023-03-02T23:49:51.963Z,10.06
2023-03-02T23:52:19.835Z,9.95
2023-03-02T23:54:48.359Z,9.73
2023-03-02T23:57:16.378Z,9.50
2023-03-02T23:59:44.766Z,9.51
